Pagina principale
METAR-TAF:

METAR-TAF

Aeroporti :

Rundu, Namibia

latitudine: 17-57-20S, longitudine: 019-43-25E, altezza: 1106 m

METAR: mancante

Ora: 20:42 (19:42 UTC)

Previsione

Il bollettino è stato emesso 14 ore e 42 minuti fa, alle 05:00 UTC
Previsione valida dal 21 alle 06 UTC al 21 alle 15 UTC
Vento 6 kt da nord-est
Visibilità 10 km o più
nessuna nube inferiore a 1500 m e nessun cumulonembo

TAF: FYRU 210500Z 2106/2115 05006KT CAVOK

Osservazioni e previsioni meteorologiche di più di 4000 aeroporti (messaggi METAR e TAF).

Le stazioni disponibili sono rappresentate dai dischi gialli e rossi sulla carta.

Puntare il mouse per vedere il nome della stazione.

Clicca sopra per visualizzare le osservazioni e previsioni meteorologiche.

Per cambiare la mappa : fare clic sui pulsanti verdi con una croce nera per ingrandire, il pulsante verde con un trattino per diminuire, o sulla freccia verde per le mappe adiacenti.


METAR-TAF: